Weather at Charlotte Douglas International Airport

Public forecast

Using degrees Fahrenheit for public forecast. Weather courtesy of forecast.io.

Current aviation weather report (METAR) for Charlotte Douglas International Airport

Retrieved 2022/05/23 07:52 UTC (9 minutes ago):

KCLT 230752Z 00000KT 6SM BR FEW120 SCT200 21/19 A3015 RMK SLP200 T02060194

Aviation forecast (TAF) for Charlotte Douglas International Airport

Retrieved 2022/05/23 06:42 UTC (1 hour ago):

TAF KCLT 230540Z 2306/2412 00000KT P6SM SCT070 BKN110 FM231300 06003KT P6SM VCSH OVC028 PROB30 2315/2319 3SM TSRA BR OVC015CB FM231900 04006KT 4SM -RA BR OVC017 TEMPO 2319/2323 2SM TSRA BR OVC009CB FM232300 07008KT 3SM -RA BR OVC008 FM240600 13005KT 5SM -RA BR OVC003